Time;durP1;ratioP1;P1;durP2;ratioP2;P2;SDS_P1;SDS_P2;PMS_P1;PMS_P2;Temp;Humidity;BMP_temperature;BMP_pressure;BME280_temperature;BME280_humidity;BME280_pressure;Samples;Min_cycle;Max_cycle;Signal;HPM_P1;HPM_P2
2024/04/18 00:01:51;;;;;;;20.50;4.68;;;;;;;14.06;65.36;100424.44;5314594;27;20006;-66
2024/04/18 00:04:18;;;;;;;23.55;4.40;;;;;;;14.02;65.53;100417.25;5314973;27;20017;-65
2024/04/18 00:06:46;;;;;;;20.70;4.15;;;;;;;13.97;65.94;100420.94;5312651;26;20005;-68
2024/04/18 00:09:16;;;;;;;15.15;4.10;;;;;;;13.93;66.30;100405.53;5281683;27;20013;-66
2024/04/18 00:11:45;;;;;;;19.63;4.85;;;;;;;13.90;66.40;100408.91;5312034;27;20005;-67
2024/04/18 00:14:14;;;;;;;22.10;4.32;;;;;;;13.89;66.84;100407.31;5312211;27;20470;-67
2024/04/18 00:16:42;;;;;;;18.38;4.03;;;;;;;13.87;66.75;100402.16;5311566;26;20377;-67
2024/04/18 00:19:18;;;;;;;21.05;4.22;;;;;;;13.86;67.13;100407.97;5311313;27;20336;-66
2024/04/18 00:21:59;;;;;;;19.55;4.35;;;;;;;13.79;67.15;100413.91;5281435;27;20005;-66
2024/04/18 00:24:28;;;;;;;21.35;4.47;;;;;;;13.76;67.44;100392.72;5311201;26;20042;-66
2024/04/18 00:26:56;;;;;;;25.27;5.00;;;;;;;13.77;67.48;100406.03;5311185;26;20370;-66
2024/04/18 00:29:36;;;;;;;21.33;4.47;;;;;;;13.78;67.62;100398.63;5311102;27;20085;-67
2024/04/18 00:32:14;;;;;;;20.63;4.22;;;;;;;13.78;67.32;100407.63;5311229;27;20413;-66
2024/04/18 00:35:01;;;;;;;21.40;4.38;;;;;;;13.82;67.55;100405.06;5311115;26;20013;-66
2024/04/18 00:37:34;;;;;;;18.85;4.00;;;;;;;13.81;67.61;100401.50;5254741;27;20006;-67
2024/04/18 00:40:02;;;;;;;21.38;4.40;;;;;;;13.83;67.49;100399.28;5312932;27;20002;-66
2024/04/18 00:42:35;;;;;;;;;;;;;;;13.87;67.27;100404.09;5314881;27;20017;-67
2024/04/18 00:45:07;;;;;;;15.15;4.28;;;;;;;13.86;67.35;100392.38;5313962;26;19996;-67
2024/04/18 00:47:47;;;;;;;17.10;3.75;;;;;;;13.87;67.30;100404.09;5314567;27;20005;-65
2024/04/18 00:50:18;;;;;;;17.58;3.85;;;;;;;13.91;67.05;100402.31;5314087;27;20002;-67
2024/04/18 00:52:46;;;;;;;19.02;4.28;;;;;;;13.91;67.34;100405.84;5314212;27;20084;-66
2024/04/18 00:55:30;;;;;;;17.02;4.38;;;;;;;13.90;67.11;100409.72;5314311;26;20010;-67
2024/04/18 00:58:11;;;;;;;18.80;3.92;;;;;;;13.91;67.32;100416.75;5314079;27;20024;-66
2024/04/18 01:00:42;;;;;;;14.75;3.53;;;;;;;13.95;67.01;100425.09;5314040;27;20021;-67
2024/04/18 01:03:34;;;;;;;16.40;3.88;;;;;;;13.95;67.05;100420.47;5300136;27;20006;-66
2024/04/18 01:06:08;;;;;;;17.88;4.80;;;;;;;13.96;66.72;100419.34;5314016;26;20082;-66
2024/04/18 01:08:54;;;;;;;16.20;3.45;;;;;;;13.97;66.81;100426.41;5314267;27;20028;-66
2024/04/18 01:11:31;;;;;;;19.02;4.35;;;;;;;14.02;66.41;100428.16;5283934;27;20372;-67
2024/04/18 01:14:10;;;;;;;19.10;4.35;;;;;;;14.04;66.26;100432.16;5313924;27;20080;-72
2024/04/18 01:16:55;;;;;;;26.85;4.22;;;;;;;14.00;66.13;100436.69;5313596;26;20084;-73
2024/04/18 01:19:23;;;;;;;16.83;4.65;;;;;;;13.98;66.51;100447.13;5283623;27;20017;-72
2024/04/18 01:21:52;;;;;;;17.50;4.05;;;;;;;13.97;66.21;100433.78;5314112;27;20017;-72
2024/04/18 01:24:19;;;;;;;16.25;4.03;;;;;;;13.94;66.63;100442.63;5284097;27;20002;-72
2024/04/18 01:26:47;;;;;;;13.13;3.30;;;;;;;13.95;66.32;100450.53;5313885;26;20543;-72
2024/04/18 01:29:14;;;;;;;22.92;3.72;;;;;;;13.96;66.35;100448.59;5313929;27;20452;-75
2024/04/18 01:32:00;;;;;;;11.38;3.17;;;;;;;13.97;66.47;100458.38;5313807;27;20021;-72
2024/04/18 01:34:28;;;;;;;15.90;3.70;;;;;;;13.98;66.10;100457.25;5313528;27;20042;-75
2024/04/18 01:37:14;;;;;;;16.10;3.60;;;;;;;13.93;66.61;100455.50;5313472;27;20020;-71
2024/04/18 01:39:43;;;;;;;16.45;3.80;;;;;;;13.94;66.35;100459.03;5313605;27;20011;-72
2024/04/18 01:42:13;;;;;;;19.73;4.18;;;;;;;13.98;66.33;100463.50;5312278;27;20414;-72
2024/04/18 01:44:41;;;;;;;15.55;3.65;;;;;;;14.00;66.11;100466.72;5314278;27;20277;-71
2024/04/18 01:47:27;;;;;;;17.98;3.78;;;;;;;14.02;65.95;100466.44;5313521;27;20050;-74
2024/04/18 01:50:08;;;;;;;17.50;3.42;;;;;;;14.04;65.78;100475.09;5313472;27;20083;-72
2024/04/18 01:52:36;;;;;;;18.67;4.00;;;;;;;14.04;65.63;100475.09;5347378;26;20016;-71
2024/04/18 01:55:06;;;;;;;25.73;4.18;;;;;;;14.05;65.41;100472.03;5348831;26;20001;-68
2024/04/18 01:57:36;;;;;;;15.10;3.53;;;;;;;14.05;65.38;100471.25;5349444;26;20009;-70
2024/04/18 02:00:22;;;;;;;17.08;3.50;;;;;;;14.02;66.00;100464.50;5349634;26;20060;-66
2024/04/18 02:02:51;;;;;;;14.90;3.83;;;;;;;14.03;65.52;100473.47;5348809;26;20008;-68
2024/04/18 02:05:37;;;;;;;16.00;3.35;;;;;;;14.00;65.92;100471.41;5348058;26;20009;-69
2024/04/18 02:08:14;;;;;;;19.42;3.90;;;;;;;13.99;65.68;100459.66;5319822;26;20015;-71
2024/04/18 02:10:45;;;;;;;15.05;3.90;;;;;;;13.98;65.53;100466.25;5347917;26;20045;-67
2024/04/18 02:13:34;;;;;;;18.52;3.53;;;;;;;13.98;65.75;100459.97;5348845;26;20015;-68
2024/04/18 02:16:03;;;;;;;25.15;4.15;;;;;;;13.95;65.61;100461.44;5322122;26;20012;-67
2024/04/18 02:18:46;;;;;;;18.23;3.97;;;;;;;13.92;65.81;100462.09;5348420;26;20475;-67
2024/04/18 02:21:14;;;;;;;14.02;3.28;;;;;;;13.90;66.04;100469.00;5347915;26;20005;-71
2024/04/18 02:23:51;;;;;;;20.55;4.05;;;;;;;13.89;66.55;100459.22;5347835;26;20015;-66
2024/04/18 02:26:19;;;;;;;22.95;4.15;;;;;;;13.83;66.69;100459.38;5347568;26;20001;-69
2024/04/18 02:28:46;;;;;;;16.20;3.55;;;;;;;13.85;66.91;100467.22;5347820;26;20017;-70
2024/04/18 02:31:17;;;;;;;15.52;3.33;;;;;;;13.84;67.04;100468.34;5347168;26;20459;-66
2024/04/18 02:33:52;;;;;;;19.38;4.22;;;;;;;13.81;66.94;100467.06;5347193;26;20324;-68
2024/04/18 02:36:20;;;;;;;18.05;3.83;;;;;;;13.78;67.51;100459.53;5347236;26;20016;-69
2024/04/18 02:38:48;;;;;;;20.67;4.38;;;;;;;13.76;67.84;100459.06;5347509;26;20001;-69
2024/04/18 02:41:15;;;;;;;18.08;4.03;;;;;;;13.75;68.04;100462.09;5347188;26;20000;-69
2024/04/18 02:43:53;;;;;;;;;;;;;;;13.69;68.58;100458.75;5347245;26;20012;-67
2024/04/18 02:46:22;;;;;;;20.17;4.15;;;;;;;13.69;68.77;100464.22;5347007;26;19932;-68
2024/04/18 02:49:08;;;;;;;20.05;4.15;;;;;;;13.66;68.90;100470.31;5347069;26;20083;-67
2024/04/18 02:51:54;;;;;;;15.80;3.70;;;;;;;13.64;69.24;100472.56;5347501;26;20004;-67
2024/04/18 02:54:41;;;;;;;20.20;3.88;;;;;;;13.59;69.39;100475.47;5347291;26;20008;-68
2024/04/18 02:57:08;;;;;;;22.05;4.18;;;;;;;13.58;69.61;100474.63;5347340;26;20459;-68
2024/04/18 02:59:37;;;;;;;18.85;3.80;;;;;;;13.56;69.88;100470.63;5346894;26;20013;-68
2024/04/18 03:02:26;;;;;;;20.20;3.95;;;;;;;13.54;70.23;100475.59;5321142;26;20009;-68
2024/04/18 03:05:16;;;;;;;15.15;3.85;;;;;;;13.51;70.35;100479.78;5346922;26;20020;-67
2024/04/18 03:07:43;;;;;;;19.30;4.10;;;;;;;13.48;70.64;100476.88;5347025;26;20012;-68
2024/04/18 03:10:11;;;;;;;20.05;4.55;;;;;;;13.47;70.32;100483.47;5347228;26;20368;-66
2024/04/18 03:12:57;;;;;;;15.73;4.38;;;;;;;13.45;70.99;100477.53;5346651;26;20009;-67
2024/04/18 03:15:44;;;;;;;18.52;4.30;;;;;;;13.40;70.95;100486.69;5347087;26;20016;-66
2024/04/18 03:18:13;;;;;;;21.08;4.35;;;;;;;13.39;70.98;100490.53;5347109;26;20008;-66
2024/04/18 03:20:40;;;;;;;23.10;4.47;;;;;;;13.34;71.41;100491.50;5346921;26;20001;-68
2024/04/18 03:23:09;;;;;;;18.73;4.35;;;;;;;13.30;71.72;100481.53;5347034;26;20008;-68
2024/04/18 03:25:56;;;;;;;17.75;4.05;;;;;;;13.26;71.78;100484.09;5321996;26;20332;-69
2024/04/18 03:28:24;;;;;;;17.63;4.18;;;;;;;13.24;72.10;100494.53;5346908;26;20013;-66
2024/04/18 03:30:51;;;;;;;22.13;4.57;;;;;;;13.23;72.33;100489.38;5347093;26;20016;-66
2024/04/18 03:33:19;;;;;;;21.00;4.30;;;;;;;13.23;72.42;100489.38;5346820;26;20001;-67
2024/04/18 03:35:46;;;;;;;18.55;4.05;;;;;;;13.20;72.41;100493.53;5346714;26;20016;-70
2024/04/18 03:38:14;;;;;;;23.30;4.28;;;;;;;13.20;72.17;100490.81;5346627;26;20082;-69
2024/04/18 03:40:42;;;;;;;21.30;4.30;;;;;;;13.19;72.49;100491.91;5346790;26;20001;-67
2024/04/18 03:43:09;;;;;;;21.20;4.38;;;;;;;13.15;72.54;100491.75;5346353;26;20016;-67
2024/04/18 03:45:37;;;;;;;24.33;4.70;;;;;;;13.13;72.78;100499.47;5346124;26;20012;-67
2024/04/18 03:48:22;;;;;;;17.88;4.28;;;;;;;13.12;72.93;100492.38;5346157;26;20011;-67
2024/04/18 03:50:50;;;;;;;24.33;4.72;;;;;;;13.10;72.99;100493.84;5346390;26;20012;-69
2024/04/18 03:53:17;;;;;;;24.30;5.57;;;;;;;13.06;73.15;100488.22;5345905;26;20005;-67
2024/04/18 03:55:45;;;;;;;23.10;4.70;;;;;;;13.05;73.34;100480.31;5346267;26;20068;-67
2024/04/18 03:58:12;;;;;;;24.38;4.95;;;;;;;13.06;73.60;100490.13;5346398;26;20513;-66
2024/04/18 04:00:49;;;;;;;;;;;;;;;12.99;73.87;100492.50;5346965;26;20013;-67
2024/04/18 04:03:16;;;;;;;17.50;3.85;;;;;;;12.96;74.27;100490.41;5346251;26;19933;-66
2024/04/18 04:05:44;;;;;;;19.02;4.72;;;;;;;12.95;74.14;100488.81;5346081;26;20503;-67
2024/04/18 04:08:12;;;;;;;25.38;4.93;;;;;;;12.97;74.21;100503.75;5346010;26;20400;-67
2024/04/18 04:10:41;;;;;;;19.77;4.43;;;;;;;12.95;74.17;100491.53;5346206;26;20078;-69
2024/04/18 04:13:09;;;;;;;23.70;5.03;;;;;;;12.94;74.08;100498.13;5345761;26;20013;-66
2024/04/18 04:15:40;;;;;;;17.00;4.30;;;;;;;12.93;74.53;100480.13;5344870;26;20480;-66
2024/04/18 04:18:08;;;;;;;21.88;4.57;;;;;;;12.93;74.60;100497.28;5345692;26;20012;-66
2024/04/18 04:20:44;;;;;;;21.92;5.32;;;;;;;12.95;74.52;100488.81;5346030;26;20008;-66
2024/04/18 04:23:11;;;;;;;19.52;4.68;;;;;;;12.93;74.45;100482.84;5345678;26;20034;-66
2024/04/18 04:25:57;;;;;;;24.02;5.57;;;;;;;12.92;74.46;100495.69;5345542;26;20350;-65
2024/04/18 04:28:25;;;;;;;27.85;5.93;;;;;;;12.93;74.26;100491.84;5315238;26;20009;-65
2024/04/18 04:30:52;;;;;;;18.05;4.53;;;;;;;12.95;74.16;100486.09;5345727;26;20012;-67
2024/04/18 04:33:20;;;;;;;20.52;5.30;;;;;;;12.99;74.08;100489.78;5345813;26;19997;-65
2024/04/18 04:35:47;;;;;;;15.80;4.38;;;;;;;13.04;74.03;100492.38;5345922;26;20455;-66
2024/04/18 04:38:14;;;;;;;21.40;5.35;;;;;;;13.06;73.94;100498.28;5347549;26;20008;-65
2024/04/18 04:40:42;;;;;;;18.30;4.63;;;;;;;13.08;73.52;100490.59;5348005;26;20455;-66
2024/04/18 04:43:09;;;;;;;20.15;4.63;;;;;;;13.13;73.10;100485.03;5346725;26;20029;-65
2024/04/18 04:45:37;;;;;;;23.20;5.15;;;;;;;13.24;72.84;100486.34;5311807;27;20017;-67
2024/04/18 04:48:05;;;;;;;21.98;4.88;;;;;;;13.38;71.73;100491.66;5305874;26;20083;-66
2024/04/18 04:50:57;;;;;;;24.98;5.13;;;;;;;13.66;70.88;100485.91;5291763;27;20461;-66
2024/04/18 04:53:31;;;;;;;21.80;5.35;;;;;;;14.20;69.18;100478.09;5276541;27;20076;-66
2024/04/18 04:55:59;;;;;;;20.17;4.78;;;;;;;14.77;66.64;100486.78;5276765;27;20014;-67
2024/04/18 04:58:27;;;;;;;22.33;4.05;;;;;;;15.20;64.85;100491.22;5288189;27;20499;-65
2024/04/18 05:00:55;;;;;;;19.42;4.32;;;;;;;15.62;62.88;100485.75;5309826;27;20452;-67
2024/04/18 05:03:35;;;;;;;20.13;4.35;;;;;;;16.09;61.41;100491.00;5304274;27;20085;-66
2024/04/18 05:06:22;;;;;;;19.52;4.60;;;;;;;16.47;59.50;100500.91;5304536;26;20017;-66
2024/04/18 05:09:09;;;;;;;16.08;4.05;;;;;;;16.78;58.63;100505.09;5310816;27;20021;-66
2024/04/18 05:11:37;;;;;;;15.30;4.03;;;;;;;17.41;56.64;100502.78;5310831;27;20006;-67
2024/04/18 05:14:26;;;;;;;16.02;4.38;;;;;;;18.24;55.00;100501.22;5306391;27;20017;-66
2024/04/18 05:16:54;;;;;;;16.85;4.10;;;;;;;18.50;52.48;100497.19;5293159;27;20013;-66
2024/04/18 05:19:22;;;;;;;17.50;4.07;;;;;;;18.93;50.33;100490.78;5291434;27;20463;-66
2024/04/18 05:21:49;;;;;;;22.50;4.50;;;;;;;19.36;49.31;100491.75;5295707;27;20017;-66
2024/04/18 05:24:34;;;;;;;17.23;4.95;;;;;;;19.53;48.58;100490.56;5304166;27;20013;-67
2024/04/18 05:27:02;;;;;;;15.00;4.38;;;;;;;19.98;47.63;100488.34;5294768;27;20507;-67
2024/04/18 05:32:16;;;;;;;16.98;3.70;;;;;;;20.46;45.67;100497.09;5279765;27;20010;-66
2024/04/18 05:35:02;;;;;;;13.55;3.53;;;;;;;21.21;44.87;100492.78;5277412;27;20400;-66
2024/04/18 05:37:29;;;;;;;16.15;3.90;;;;;;;21.89;43.19;100490.94;5279663;27;20002;-67
2024/04/18 05:39:57;;;;;;;13.98;3.28;;;;;;;22.19;41.27;100488.94;5280038;27;20445;-67
2024/04/18 05:42:25;;;;;;;12.90;3.13;;;;;;;22.51;40.60;100488.44;5280020;27;20002;-67
2024/04/18 05:45:08;;;;;;;12.68;3.58;;;;;;;23.01;39.50;100486.09;5279310;27;20477;-64
2024/04/18 05:47:59;;;;;;;12.98;3.00;;;;;;;23.35;38.28;100481.13;5274640;27;20457;-66
2024/04/18 05:50:26;;;;;;;16.08;2.92;;;;;;;23.36;37.85;100488.28;5279565;27;20011;-65
2024/04/18 05:52:54;;;;;;;11.88;3.10;;;;;;;23.73;37.91;100484.53;5279750;27;20014;-67
2024/04/18 05:55:21;;;;;;;17.15;3.83;;;;;;;23.78;37.55;100495.22;5279488;27;20076;-66
2024/04/18 05:57:49;;;;;;;18.42;4.35;;;;;;;23.14;38.84;100501.22;5249591;27;20003;-66
2024/04/18 06:00:35;;;;;;;17.83;5.00;;;;;;;22.17;40.99;100502.34;5301748;27;20005;-67
2024/04/18 06:03:04;;;;;;;16.35;4.50;;;;;;;21.73;42.05;100514.06;5312101;27;20455;-65
2024/04/18 06:05:32;;;;;;;18.33;4.95;;;;;;;21.15;43.65;100521.91;5312998;27;20008;-66
2024/04/18 06:08:14;;;;;;;21.73;4.68;;;;;;;21.00;43.84;100513.41;5312813;27;20006;-67
2024/04/18 06:10:42;;;;;;;17.13;4.35;;;;;;;20.98;44.37;100518.50;5313514;26;20017;-67
2024/04/18 06:13:22;;;;;;;20.73;4.57;;;;;;;21.50;43.12;100522.47;5306325;27;20013;-68
2024/04/18 06:15:50;;;;;;;13.48;3.50;;;;;;;21.81;43.14;100522.44;5313920;26;20017;-66
2024/04/18 06:18:18;;;;;;;16.33;3.60;;;;;;;22.36;42.44;100525.47;5313374;27;19998;-67
2024/04/18 06:20:50;;;;;;;13.07;4.05;;;;;;;22.98;40.85;100519.31;5313059;27;20016;-65
2024/04/18 06:23:17;;;;;;;15.43;3.75;;;;;;;23.37;39.58;100525.13;5313249;27;20072;-66
2024/04/18 06:26:05;;;;;;;16.48;4.03;;;;;;;23.00;39.48;100519.72;5312925;26;20001;-66
2024/04/18 06:28:33;;;;;;;16.98;3.67;;;;;;;22.28;40.32;100510.78;5283865;27;20502;-67
2024/04/18 06:31:01;;;;;;;16.23;3.63;;;;;;;22.48;40.76;100517.69;5313286;26;20129;-66
2024/04/18 06:33:29;;;;;;;13.02;3.53;;;;;;;22.52;39.79;100526.03;5313513;27;20006;-66
2024/04/18 06:35:58;;;;;;;17.00;3.33;;;;;;;22.27;40.57;100522.22;5313354;26;20020;-69
2024/04/18 06:38:26;;;;;;;11.82;3.20;;;;;;;22.61;40.04;100529.28;5312487;27;19994;-67
2024/04/18 06:40:53;;;;;;;11.73;3.78;;;;;;;22.79;39.95;100521.13;5313530;26;20444;-69
2024/04/18 06:43:39;;;;;;;17.13;3.60;;;;;;;22.60;40.12;100533.22;5312686;27;20005;-67
2024/04/18 06:46:08;;;;;;;17.90;4.22;;;;;;;22.24;40.69;100527.34;5313160;26;20012;-67
2024/04/18 06:48:36;;;;;;;17.55;4.07;;;;;;;21.75;41.80;100528.31;5282823;27;20009;-67
2024/04/18 06:51:04;;;;;;;14.95;3.70;;;;;;;22.07;41.77;100527.91;5313075;27;19997;-67
2024/04/18 06:53:32;;;;;;;14.38;3.22;;;;;;;22.57;40.53;100525.66;5281895;27;20013;-66
2024/04/18 06:56:00;;;;;;;17.27;4.28;;;;;;;22.49;40.15;100518.47;5312810;26;20005;-67
2024/04/18 06:58:28;;;;;;;15.13;4.63;;;;;;;22.64;40.18;100520.22;5313036;27;20009;-66
2024/04/18 07:00:55;;;;;;;15.05;3.60;;;;;;;22.78;40.14;100530.63;5312834;27;20536;-67
2024/04/18 07:03:23;;;;;;;14.13;3.53;;;;;;;23.01;40.22;100530.44;5312558;27;20005;-66
2024/04/18 07:05:51;;;;;;;17.55;4.05;;;;;;;22.72;39.37;100543.22;5312790;26;20074;-70
2024/04/18 07:08:22;;;;;;;14.50;3.83;;;;;;;22.61;39.85;100536.81;5283594;27;20035;-69
2024/04/18 07:10:53;;;;;;;14.18;3.53;;;;;;;22.33;40.55;100543.63;5312388;26;20005;-68
2024/04/18 07:13:31;;;;;;;16.23;4.15;;;;;;;22.31;40.30;100536.88;5310850;27;20006;-68
2024/04/18 07:16:20;;;;;;;12.55;3.38;;;;;;;22.67;39.83;100533.31;5297203;27;20005;-69
2024/04/18 07:18:54;;;;;;;17.48;3.92;;;;;;;23.17;39.04;100524.63;5300858;27;20449;-68
2024/04/18 07:21:21;;;;;;;14.93;3.90;;;;;;;23.01;38.82;100527.66;5293572;27;20018;-66
2024/04/18 07:23:49;;;;;;;16.75;4.03;;;;;;;23.08;38.70;100524.94;5294348;27;20006;-68
2024/04/18 07:26:37;;;;;;;12.48;3.70;;;;;;;23.38;38.12;100532.25;5301451;26;20130;-67
2024/04/18 07:29:04;;;;;;;15.43;3.53;;;;;;;23.14;38.23;100530.94;5293894;27;20099;-69
2024/04/18 07:31:32;;;;;;;14.00;3.70;;;;;;;23.11;38.27;100526.94;5320754;26;20011;-69
2024/04/18 07:34:13;;;;;;;12.45;3.33;;;;;;;23.44;37.76;100538.25;5291805;27;20460;-69
2024/04/18 07:36:43;;;;;;;12.05;3.50;;;;;;;23.32;37.80;100540.13;5296163;27;20001;-68
2024/04/18 07:39:11;;;;;;;12.18;3.60;;;;;;;23.05;37.82;100541.53;5293337;27;20021;-70
2024/04/18 07:41:39;;;;;;;15.32;3.50;;;;;;;22.90;37.92;100541.41;5292978;27;20006;-69
2024/04/18 07:44:08;;;;;;;15.18;3.70;;;;;;;22.11;39.55;100550.91;5295274;27;20444;-68
2024/04/18 07:46:36;;;;;;;14.73;3.58;;;;;;;21.99;39.90;100554.69;5297163;27;20053;-69
2024/04/18 07:49:03;;;;;;;14.80;3.60;;;;;;;22.06;39.67;100562.28;5291722;26;20013;-69
2024/04/18 07:51:31;;;;;;;15.18;3.90;;;;;;;22.28;39.12;100557.00;5296967;27;20012;-67
2024/04/18 07:54:00;;;;;;;13.55;3.28;;;;;;;22.38;38.82;100553.59;5296378;27;20014;-69
2024/04/18 07:56:28;;;;;;;13.80;3.53;;;;;;;22.47;38.79;100552.09;5277799;27;20026;-68
2024/04/18 07:58:57;;;;;;;20.77;3.97;;;;;;;22.38;38.87;100551.63;5277669;27;20002;-68
2024/04/18 08:01:25;;;;;;;29.02;4.85;;;;;;;22.66;38.63;100562.16;5247974;27;20073;-68
2024/04/18 08:03:56;;;;;;;21.50;3.58;;;;;;;22.45;38.54;100571.06;5277828;27;20076;-69
2024/04/18 08:06:43;;;;;;;13.05;3.03;;;;;;;22.10;38.91;100565.09;5277877;27;20006;-68
2024/04/18 08:09:15;;;;;;;16.63;3.50;;;;;;;22.24;39.09;100565.28;5277174;27;20010;-68
2024/04/18 08:11:47;;;;;;;11.32;3.05;;;;;;;22.23;38.17;100560.94;5277785;27;19998;-69
2024/04/18 08:14:20;;;;;;;18.27;3.63;;;;;;;21.92;39.54;100564.88;5249095;27;20069;-68
2024/04/18 08:16:53;;;;;;;14.32;3.00;;;;;;;22.25;39.23;100569.66;5277790;27;20032;-67
2024/04/18 08:19:21;;;;;;;13.07;2.63;;;;;;;22.79;38.49;100568.22;5277162;27;20014;-67
2024/04/18 08:21:49;;;;;;;12.75;3.00;;;;;;;23.09;37.19;100562.56;5248090;27;20006;-67
2024/04/18 08:24:27;;;;;;;14.73;3.42;;;;;;;22.87;36.46;100563.56;5277511;27;20438;-68
2024/04/18 08:27:07;;;;;;;13.93;3.00;;;;;;;22.44;37.41;100565.88;5277339;27;20015;-68
2024/04/18 08:29:35;;;;;;;12.60;2.70;;;;;;;22.29;37.81;100569.69;5277007;27;20014;-67
2024/04/18 08:32:02;;;;;;;11.35;3.00;;;;;;;22.52;38.23;100567.56;5276921;27;20022;-69
2024/04/18 08:34:30;;;;;;;17.60;3.22;;;;;;;22.52;38.06;100567.56;5277231;27;20356;-68
2024/04/18 08:37:00;;;;;;;12.00;3.30;;;;;;;22.32;38.53;100571.72;5277188;27;19999;-69
2024/04/18 08:39:28;;;;;;;13.13;3.15;;;;;;;22.49;38.17;100565.56;5276972;27;20002;-68
2024/04/18 08:41:58;;;;;;;14.23;2.85;;;;;;;22.39;37.65;100577.31;5277199;27;19998;-69
2024/04/18 08:44:27;;;;;;;12.02;2.88;;;;;;;22.14;38.45;100582.53;5276802;27;20080;-70
2024/04/18 08:46:57;;;;;;;11.25;2.58;;;;;;;21.91;38.45;100583.44;5277066;27;20002;-68
2024/04/18 08:49:26;;;;;;;14.23;2.42;;;;;;;21.71;39.23;100581.97;5277111;27;20055;-69
2024/04/18 08:51:54;;;;;;;12.85;2.80;;;;;;;21.78;38.51;100577.38;5276647;27;20006;-68
2024/04/18 08:54:21;;;;;;;12.18;2.85;;;;;;;21.94;39.05;100576.34;5276906;27;20002;-68
2024/04/18 08:56:56;;;;;;;11.23;2.80;;;;;;;22.02;39.15;100587.16;5276742;27;20002;-67
2024/04/18 08:59:24;;;;;;;12.55;2.58;;;;;;;22.09;39.03;100577.34;5247130;27;20034;-67
2024/04/18 09:01:52;;;;;;;13.77;2.55;;;;;;;21.74;38.90;100568.19;5279952;27;20010;-67
2024/04/18 09:04:19;;;;;;;11.18;2.42;;;;;;;21.49;39.82;100572.63;5250620;27;20452;-69
2024/04/18 09:06:47;;;;;;;11.95;3.28;;;;;;;21.67;39.77;100583.91;5223037;27;20022;-69
2024/04/18 09:09:16;;;;;;;8.10;2.10;;;;;;;21.81;39.96;100570.25;5250416;27;20054;-69
2024/04/18 09:11:48;;;;;;;10.98;2.80;;;;;;;21.80;39.64;100562.34;5280216;27;20042;-69
2024/04/18 09:14:15;;;;;;;10.00;2.65;;;;;;;22.12;39.21;100569.09;5281190;27;20407;-69
2024/04/18 09:16:43;;;;;;;11.07;2.63;;;;;;;22.24;38.79;100566.09;5280799;27;19998;-72
2024/04/18 09:19:11;;;;;;;11.82;2.47;;;;;;;21.92;39.12;100565.69;5279927;27;20026;-67
2024/04/18 09:21:40;;;;;;;7.93;2.08;;;;;;;21.92;39.81;100560.16;5251503;27;20003;-68
2024/04/18 09:24:10;;;;;;;10.07;2.75;;;;;;;21.81;39.25;100563.94;5251181;27;20002;-68
2024/04/18 09:26:37;;;;;;;11.90;2.63;;;;;;;21.91;39.48;100557.75;5280329;27;20002;-70
2024/04/18 09:29:05;;;;;;;8.20;2.42;;;;;;;22.11;39.07;100561.97;5280099;27;20026;-68
2024/04/18 09:31:38;;;;;;;13.25;2.63;;;;;;;22.12;39.09;100557.22;5279922;27;20002;-68
2024/04/18 09:34:15;;;;;;;9.38;2.40;;;;;;;21.85;39.02;100553.72;5279936;27;20317;-71
2024/04/18 09:36:45;;;;;;;10.02;2.40;;;;;;;21.84;39.44;100555.69;5279852;27;20006;-71
2024/04/18 09:39:34;;;;;;;11.77;2.40;;;;;;;22.08;39.00;100559.94;5250175;27;20009;-68
2024/04/18 09:42:12;;;;;;;12.32;2.53;;;;;;;22.32;38.52;100566.19;5279837;27;20002;-69
2024/04/18 09:44:46;;;;;;;12.23;2.03;;;;;;;22.49;38.12;100560.03;5279610;27;20035;-68
2024/04/18 09:47:14;;;;;;;13.43;2.55;;;;;;;22.66;37.77;100547.53;5279693;27;20002;-69
2024/04/18 09:49:42;;;;;;;11.23;2.75;;;;;;;22.53;38.29;100540.66;5279731;27;20002;-69
2024/04/18 09:52:13;;;;;;;12.15;2.58;;;;;;;22.64;37.90;100536.84;5279490;27;20002;-70
2024/04/18 09:54:42;;;;;;;9.30;2.70;;;;;;;22.66;37.54;100540.00;5278823;27;20468;-68
2024/04/18 09:57:14;;;;;;;8.18;2.40;;;;;;;22.64;37.43;100542.38;5311317;26;20103;-67
2024/04/18 09:59:44;;;;;;;13.23;2.50;;;;;;;22.54;36.77;100531.19;5313908;27;19997;-69
2024/04/18 10:02:15;;;;;;;8.30;2.20;;;;;;;22.74;37.54;100531.75;5313739;27;20009;-69
2024/04/18 10:04:43;;;;;;;10.50;2.92;;;;;;;22.76;37.19;100537.72;5313931;27;20013;-72
2024/04/18 10:07:13;;;;;;;9.85;2.55;;;;;;;22.85;36.95;100538.97;5314712;27;20455;-72
2024/04/18 10:09:43;;;;;;;10.98;2.38;;;;;;;23.13;36.79;100549.53;5314414;27;20448;-70
2024/04/18 10:12:11;;;;;;;9.13;2.45;;;;;;;23.05;36.75;100533.22;5313561;27;20008;-68
2024/04/18 10:14:39;;;;;;;13.75;3.28;;;;;;;23.21;36.72;100539.28;5313851;27;20075;-71
2024/04/18 10:17:19;;;;;;;9.80;2.55;;;;;;;23.34;36.43;100543.34;5313881;27;20001;-68
2024/04/18 10:19:50;;;;;;;12.43;2.47;;;;;;;23.22;36.78;100540.06;5283207;27;19998;-70
2024/04/18 10:22:18;;;;;;;14.75;3.22;;;;;;;23.59;35.97;100549.03;5313495;27;20075;-68
2024/04/18 10:25:03;;;;;;;15.00;2.72;;;;;;;23.30;35.94;100548.06;5313503;27;20432;-69
2024/04/18 10:27:41;;;;;;;13.70;2.42;;;;;;;23.04;41.16;100556.59;5313775;27;20029;-68
2024/04/18 10:30:17;;;;;;;12.50;2.88;;;;;;;22.50;42.99;100545.00;5314803;27;20002;-69
2024/04/18 10:32:47;;;;;;;11.02;3.00;;;;;;;22.10;45.38;100549.28;5277984;27;20002;-70
2024/04/18 10:35:17;;;;;;;16.92;3.17;;;;;;;22.09;43.94;100547.69;5277425;27;20009;-69
2024/04/18 10:37:50;;;;;;;14.20;3.28;;;;;;;22.29;42.90;100539.25;5279135;27;20002;-69
2024/04/18 10:40:18;;;;;;;15.65;3.85;;;;;;;22.15;44.80;100550.94;5249822;27;20010;-69
2024/04/18 10:42:45;;;;;;;19.27;3.50;;;;;;;21.37;49.61;100554.25;5278926;27;20006;-67
2024/04/18 10:45:15;;;;;;;15.85;3.38;;;;;;;20.34;54.21;100551.31;5279223;27;20451;-69
2024/04/18 10:47:48;;;;;;;16.40;4.00;;;;;;;20.20;55.79;100551.03;5278466;27;20017;-70
2024/04/18 10:50:16;;;;;;;15.02;3.40;;;;;;;20.35;54.33;100550.13;5279104;27;20013;-68
2024/04/18 10:52:46;;;;;;;15.88;3.75;;;;;;;20.73;51.47;100551.25;5279200;27;20009;-71
2024/04/18 10:55:14;;;;;;;16.35;3.20;;;;;;;20.45;53.64;100548.75;5278952;27;20307;-69
2024/04/18 10:57:41;;;;;;;17.02;3.50;;;;;;;20.04;55.61;100544.78;5277955;27;20014;-69
2024/04/18 11:00:15;;;;;;;13.68;3.55;;;;;;;20.15;57.97;100549.38;5278133;27;19998;-69
2024/04/18 11:02:42;;;;;;;18.80;3.70;;;;;;;20.28;59.10;100561.06;5278694;27;20010;-67
2024/04/18 11:05:10;;;;;;;16.15;3.45;;;;;;;20.24;58.46;100557.44;5278791;27;20004;-69
2024/04/18 11:07:55;;;;;;;22.20;4.00;;;;;;;20.02;60.29;100567.22;5278683;27;20007;-68
2024/04/18 11:10:27;;;;;;;21.02;4.00;;;;;;;19.48;63.16;100556.19;5278268;27;19998;-69
2024/04/18 11:12:56;;;;;;;19.30;3.95;;;;;;;19.25;66.08;100564.31;5278560;27;20010;-70
2024/04/18 11:15:24;;;;;;;17.63;3.85;;;;;;;19.04;65.42;100559.09;5278539;27;20144;-68
2024/04/18 11:17:53;;;;;;;20.30;4.18;;;;;;;19.03;65.60;100550.03;5222447;27;20039;-69
2024/04/18 11:20:21;;;;;;;15.25;4.07;;;;;;;19.06;65.53;100549.31;5278136;27;20014;-70
2024/04/18 11:22:48;;;;;;;19.98;3.67;;;;;;;19.04;67.13;100550.84;5278414;27;20022;-70
2024/04/18 11:25:24;;;;;;;17.67;3.60;;;;;;;19.28;67.38;100558.09;5278381;27;20014;-69
2024/04/18 11:28:05;;;;;;;16.98;3.90;;;;;;;19.40;64.82;100563.50;5278272;27;20010;-71
2024/04/18 11:30:38;;;;;;;16.77;3.50;;;;;;;19.78;64.83;100559.25;5291095;27;20006;-70
2024/04/18 11:33:09;;;;;;;21.58;3.78;;;;;;;19.75;64.11;100554.47;5287331;27;20800;-67
2024/04/18 11:35:37;;;;;;;18.33;3.58;;;;;;;20.06;64.99;100568.09;5304438;26;19997;-71
2024/04/18 11:38:16;;;;;;;14.77;3.35;;;;;;;19.82;66.17;100569.19;5312323;27;20029;-69
2024/04/18 11:41:10;;;;;;;18.65;3.05;;;;;;;19.45;65.58;100560.47;5312133;27;20448;-72
2024/04/18 11:43:38;;;;;;;17.85;4.07;;;;;;;19.17;68.22;100557.84;5311633;27;21453;-71
2024/04/18 11:46:06;;;;;;;18.40;3.58;;;;;;;18.82;71.63;100544.81;5312283;26;20352;-70